»·PEaware :: UPS632 KBOI-KCOS

UPS632 :: KBOI-KCOS

FLIGHT INFORMATION

Flight Status: Arrived
Operator:
United Parcel Service
More flights by this operator :: More flights under this callsign
Pilot: Klaus K. (15267)
Aircraft: BOEING 757-200
(B752)
More flights by this aircraft type
Origin: KBOI Boise Air Terminal/Gowen
United States
Destination: KCOS City Of Colorado Springs Mun
United States
More flights between these airports :: More routes between these airports
Route: +BOI3 ROARR MLD MTU HBU DBRY3
File this flight plan on PilotEdge
Remarks: / L
Altitude:
(Current/Filed)
41,000ft
Speed:
(Current/Filed)
425kts
Departed: 08-Mar-18 02:59 PM
Arrived: 08-Mar-18 04:30 PM
Distance/Time
Traveled:
592nm/1:31
Distance/Time
To Go:
Arrived

Flight Plot

Page will automatically refresh every two minutes.

Flight plan parsing failed; only flown route is shown


Map Options




Map Legend


Flown Route
Filed Route
Departure Airport
Arrival Airport
Navaid (VOR, NDB)
Fix

Horizontal Profiles

Position Reports

Time Latitude Longitude Heading Altitude Ground
Speed
08-Mar-18 14:43 43.567123 -116.243269 270 2820ft 0kts
08-Mar-18 14:44 43.567123 -116.243269 270 2820ft 0kts
08-Mar-18 14:45 43.567123 -116.243269 270 2820ft 0kts
08-Mar-18 14:46 43.567123 -116.243269 270 2820ft 0kts
08-Mar-18 14:47 43.567123 -116.243269 270 2820ft 0kts
08-Mar-18 14:48 43.567123 -116.243269 270 2820ft 0kts
08-Mar-18 14:49 43.567123 -116.243269 270 2820ft 0kts
08-Mar-18 14:50 43.567123 -116.243269 270 2820ft 0kts
08-Mar-18 14:51 43.567123 -116.243269 270 2820ft 0kts
08-Mar-18 14:52 43.567123 -116.243269 270 2820ft 0kts
08-Mar-18 14:53 43.567123 -116.243269 270 2820ft 0kts
08-Mar-18 14:54 43.567123 -116.243269 270 2820ft 0kts
08-Mar-18 14:55 43.567123 -116.243269 270 2820ft 0kts
08-Mar-18 14:56 43.567123 -116.243269 270 2820ft 0kts
08-Mar-18 14:57 43.567112 -116.242946 285 2821ft 2kts
08-Mar-18 14:58 43.566727 -116.242351 341 2822ft 2kts
08-Mar-18 14:59 43.567293 -116.242278 1 2822ft 5kts
08-Mar-18 15:00 43.567574 -116.242271 359 2822ft 0kts
08-Mar-18 15:01 43.567574 -116.242271 359 2822ft 0kts
08-Mar-18 15:02 43.567877 -116.242273 0 2822ft 4kts
08-Mar-18 15:03 43.568534 -116.242270 0 2822ft 0kts
08-Mar-18 15:04 43.569061 -116.242266 1 2821ft 7kts
08-Mar-18 15:05 43.568916 -116.239255 115 2830ft 40kts
08-Mar-18 15:06 43.555716 -116.198677 111 4338ft 135kts
08-Mar-18 15:07 43.537489 -116.134103 113 6245ft 218kts
08-Mar-18 15:08 43.512400 -116.050995 119 9249ft 278kts
08-Mar-18 15:09 43.478647 -115.945769 118 12668ft 322kts
08-Mar-18 15:10 43.439847 -115.825058 118 14860ft 375kts
08-Mar-18 15:11 43.396750 -115.691376 118 16683ft 395kts
08-Mar-18 15:12 43.350200 -115.547937 118 19583ft 425kts
08-Mar-18 15:13 43.300722 -115.396303 119 22414ft 449kts
08-Mar-18 15:14 43.246425 -115.241563 122 24945ft 468kts
08-Mar-18 15:15 43.188083 -115.078523 122 27299ft 486kts
08-Mar-18 15:16 43.127471 -114.910148 122 29383ft 505kts
08-Mar-18 15:17 43.064113 -114.735232 122 31247ft 524kts
08-Mar-18 15:18 42.998701 -114.555702 123 33448ft 533kts
08-Mar-18 15:19 42.932450 -114.375066 123 36012ft 532kts
08-Mar-18 15:20 42.867469 -114.199063 124 38043ft 532kts
08-Mar-18 15:21 42.801063 -114.020316 124 39703ft 531kts
08-Mar-18 15:22 42.734499 -113.842261 124 40709ft 530kts
08-Mar-18 15:23 42.667538 -113.664276 124 41034ft 530kts
08-Mar-18 15:24 42.600382 -113.486893 124 41037ft 530kts
08-Mar-18 15:25 42.534357 -113.313527 125 41020ft 529kts
08-Mar-18 15:26 42.466845 -113.137446 125 41037ft 535kts
08-Mar-18 15:27 42.397931 -112.958721 124 41056ft 539kts
08-Mar-18 15:28 42.328594 -112.780030 124 41058ft 541kts
08-Mar-18 15:29 42.259138 -112.602107 124 41062ft 541kts
08-Mar-18 15:30 42.181085 -112.435916 143 41110ft 518kts
08-Mar-18 15:31 42.079437 -112.309909 148 41110ft 510kts
08-Mar-18 15:32 41.974193 -112.185579 149 41112ft 511kts
08-Mar-18 15:33 41.885027 -112.081225 149 41117ft 511kts
08-Mar-18 15:34 41.802100 -111.984600 149 41117ft 510kts
08-Mar-18 15:35 41.695556 -111.860964 149 41121ft 511kts
08-Mar-18 15:36 41.590129 -111.739178 149 41125ft 510kts
08-Mar-18 15:37 41.483975 -111.617101 149 41125ft 511kts
08-Mar-18 15:38 41.377727 -111.495473 149 41119ft 510kts
08-Mar-18 15:39 41.270462 -111.373228 149 41113ft 510kts
08-Mar-18 15:40 41.166244 -111.254990 149 41095ft 512kts
08-Mar-18 15:41 41.058581 -111.133366 149 41097ft 511kts
08-Mar-18 15:42 40.951097 -111.012522 148 41100ft 512kts
08-Mar-18 15:43 40.845754 -110.894555 147 41103ft 515kts
08-Mar-18 15:44 40.737771 -110.774149 147 41105ft 515kts
08-Mar-18 15:45 40.629661 -110.654144 147 41107ft 515kts
08-Mar-18 15:46 40.521373 -110.534479 147 41114ft 515kts
08-Mar-18 15:47 40.413290 -110.415561 147 41113ft 516kts
08-Mar-18 15:48 40.305335 -110.297284 148 41104ft 514kts
08-Mar-18 15:49 40.196854 -110.178964 148 41094ft 514kts
08-Mar-18 15:50 40.102570 -110.038408 130 41096ft 531kts
08-Mar-18 15:51 40.019993 -109.881343 130 41094ft 531kts
08-Mar-18 15:52 39.937556 -109.725438 130 41097ft 531kts
08-Mar-18 15:53 39.855182 -109.570436 130 41099ft 531kts
08-Mar-18 15:54 39.775286 -109.420818 130 41102ft 531kts
08-Mar-18 15:55 39.692772 -109.267015 130 41088ft 530kts
08-Mar-18 15:56 39.609864 -109.113285 130 41095ft 532kts
08-Mar-18 15:57 39.525644 -108.957856 129 41102ft 537kts
08-Mar-18 15:58 39.440538 -108.801489 129 41105ft 537kts
08-Mar-18 15:59 39.437990 -108.796822 129 41105ft 537kts
08-Mar-18 16:00 39.272807 -108.495634 129 41110ft 537kts
08-Mar-18 16:01 39.188718 -108.343390 130 41110ft 537kts
08-Mar-18 16:02 39.107382 -108.196827 130 41098ft 537kts
08-Mar-18 16:03 39.021678 -108.043105 130 41089ft 536kts
08-Mar-18 16:04 38.936057 -107.890259 130 41087ft 534kts
08-Mar-18 16:05 38.880433 -107.791348 130 41085ft 532kts
08-Mar-18 16:06 38.813571 -107.672868 130 41106ft 532kts
08-Mar-18 16:07 38.727233 -107.520510 130 41126ft 533kts
08-Mar-18 16:08 38.654724 -107.393091 130 41133ft 532kts
08-Mar-18 16:09 38.570125 -107.245057 131 41124ft 532kts
08-Mar-18 16:10 38.472115 -107.064983 118 41117ft 539kts
08-Mar-18 16:11 38.443320 -106.880306 90 41113ft 540kts
08-Mar-18 16:12 38.436003 -106.723922 90 39543ft 538kts
08-Mar-18 16:13 38.426223 -106.536420 90 36631ft 536kts
08-Mar-18 16:14 38.416099 -106.350010 90 33742ft 538kts
08-Mar-18 16:15 38.404428 -106.141853 91 30439ft 537kts
08-Mar-18 16:16 38.395630 -105.989392 91 27991ft 522kts
08-Mar-18 16:17 38.384992 -105.809263 92 25055ft 501kts
08-Mar-18 16:18 38.374680 -105.638980 92 24165ft 477kts
08-Mar-18 16:19 38.364337 -105.472184 92 23179ft 469kts
08-Mar-18 16:20 38.354188 -105.312080 93 21237ft 454kts
08-Mar-18 16:21 38.344212 -105.158106 93 19266ft 437kts
08-Mar-18 16:22 38.334253 -105.007421 93 17267ft 419kts
08-Mar-18 16:23 38.324611 -104.864268 93 15289ft 392kts
08-Mar-18 16:24 38.316165 -104.739837 90 15184ft 325kts
08-Mar-18 16:25 38.358578 -104.653774 12 13705ft 293kts
08-Mar-18 16:26 38.437191 -104.642391 359 12261ft 284kts
08-Mar-18 16:27 38.513456 -104.640086 358 11416ft 258kts
08-Mar-18 16:28 38.583027 -104.638964 358 10241ft 256kts
08-Mar-18 16:29 38.652819 -104.637899 359 9131ft 248kts
08-Mar-18 16:30 38.720005 -104.636857 356 8901ft 228kts
08-Mar-18 16:31 38.784132 -104.638268 353 8238ft 229kts
08-Mar-18 16:32 38.847523 -104.640362 357 8364ft 237kts
08-Mar-18 16:33 38.902643 -104.642638 320 8266ft 174kts
08-Mar-18 16:34 38.904262 -104.690230 236 7817ft 138kts
08-Mar-18 16:35 38.871417 -104.713232 198 7016ft 140kts
08-Mar-18 16:36 38.833308 -104.715857 184 6312ft 134kts
08-Mar-18 16:37 38.807729 -104.715909 180 6107ft 33kts
08-Mar-18 16:38 38.806018 -104.717126 268 6107ft 0kts
08-Mar-18 16:39 38.807245 -104.717818 358 6107ft 17kts
08-Mar-18 16:40 38.812450 -104.718181 285 6107ft 12kts
08-Mar-18 16:41 38.812192 -104.720532 219 6107ft 0kts

Navigation Log

Ident Type
Flight plan parsing failed, navigation log unavailable